Time;durP1;ratioP1;P1;durP2;ratioP2;P2;SDS_P1;SDS_P2;PMS_P1;PMS_P2;Temp;Humidity;BMP_temperature;BMP_pressure;BME280_temperature;BME280_humidity;BME280_pressure;Samples;Min_cycle;Max_cycle;Signal;HPM_P1;HPM_P2
2021/05/27 00:01:36;;;;;;;10.65;5.10;;;;;;;;;;5047906;28;20051;-47
2021/05/27 00:04:02;;;;;;;6.25;4.10;;;;;;;;;;5047826;28;20028;-48
2021/05/27 00:06:28;;;;;;;16.42;8.00;;;;;;;;;;5048378;28;20135;-49
2021/05/27 00:08:56;;;;;;;13.90;5.53;;;;;;;;;;5032133;28;20135;-49
2021/05/27 00:11:22;;;;;;;19.98;11.95;;;;;;;;;;5048168;28;20062;-49
2021/05/27 00:13:48;;;;;;;15.45;7.78;;;;;;;;;;5047378;28;20039;-49
2021/05/27 00:16:14;;;;;;;31.83;19.48;;;;;;;;;;5047545;28;20452;-49
2021/05/27 00:18:40;;;;;;;11.10;5.95;;;;;;;;;;5047937;28;20021;-48
2021/05/27 00:21:07;;;;;;;11.80;5.82;;;;;;;;;;5047422;28;20040;-49
2021/05/27 00:23:33;;;;;;;7.95;5.00;;;;;;;;;;5047943;28;20020;-51
2021/05/27 00:25:59;;;;;;;22.90;11.32;;;;;;;;;;5047350;28;20225;-54
2021/05/27 00:28:25;;;;;;;27.95;14.55;;;;;;;;;;5047859;28;20036;-50
2021/05/27 00:30:51;;;;;;;27.88;15.80;;;;;;;;;;5047299;28;20028;-50
2021/05/27 00:33:19;;;;;;;16.65;8.80;;;;;;;;;;5047890;28;20060;-50
2021/05/27 00:35:46;;;;;;;8.90;5.68;;;;;;;;;;5047426;28;20029;-51
2021/05/27 00:38:12;;;;;;;8.82;5.47;;;;;;;;;;5047234;28;20031;-50
2021/05/27 00:40:38;;;;;;;8.95;5.70;;;;;;;;;;5028968;28;21591;-50
2021/05/27 00:43:04;;;;;;;20.98;11.50;;;;;;;;;;5047014;28;20292;-51
2021/05/27 00:45:31;;;;;;;20.60;12.15;;;;;;;;;;5047419;28;20045;-50
2021/05/27 00:47:57;;;;;;;14.40;8.55;;;;;;;;;;5047111;28;20500;-49
2021/05/27 00:50:23;;;;;;;35.90;19.95;;;;;;;;;;5047008;28;20155;-50
2021/05/27 00:52:50;;;;;;;110.63;57.53;;;;;;;;;;5046783;28;20040;-49
2021/05/27 00:55:16;;;;;;;65.97;33.22;;;;;;;;;;5046918;28;20029;-50
2021/05/27 00:57:42;;;;;;;85.50;44.85;;;;;;;;;;5046898;28;20542;-49
2021/05/27 01:00:10;;;;;;;122.03;65.00;;;;;;;;;;5046647;28;20025;-50
2021/05/27 01:02:38;;;;;;;146.90;81.25;;;;;;;;;;5046982;28;20021;-49
2021/05/27 01:05:05;;;;;;;117.70;64.78;;;;;;;;;;5046706;28;20028;-51
2021/05/27 01:07:31;;;;;;;108.22;65.25;;;;;;;;;;5046835;28;20021;-50
2021/05/27 01:09:58;;;;;;;116.88;68.53;;;;;;;;;;5046692;28;20029;-50
2021/05/27 01:12:24;;;;;;;71.72;42.55;;;;;;;;;;5047015;28;20082;-50
2021/05/27 01:17:38;;;;;;;39.05;20.25;;;;;;;;;;5047112;28;20162;-50
2021/05/27 01:20:08;;;;;;;22.00;12.40;;;;;;;;;;5046535;28;20028;-49
2021/05/27 01:22:34;;;;;;;47.50;21.85;;;;;;;;;;5046357;28;20126;-48
2021/05/27 01:25:00;;;;;;;145.55;65.40;;;;;;;;;;5046307;28;20104;-50
2021/05/27 01:27:26;;;;;;;303.70;136.43;;;;;;;;;;5046611;28;20186;-50
2021/05/27 01:29:53;;;;;;;154.35;69.03;;;;;;;;;;5046132;28;20049;-50
2021/05/27 01:32:20;;;;;;;51.38;25.10;;;;;;;;;;5027797;28;20033;-48
2021/05/27 01:34:46;;;;;;;39.13;21.17;;;;;;;;;;5046165;28;20447;-47
2021/05/27 01:37:12;;;;;;;72.70;53.55;;;;;;;;;;5046727;28;20067;-47
2021/05/27 01:39:38;;;;;;;66.18;47.58;;;;;;;;;;5045893;28;20032;-51
2021/05/27 01:42:04;;;;;;;45.72;33.47;;;;;;;;;;5046201;28;20184;-51
2021/05/27 01:44:30;;;;;;;40.83;27.23;;;;;;;;;;5046142;28;20032;-49
2021/05/27 01:46:57;;;;;;;75.82;54.53;;;;;;;;;;5046112;28;20415;-49
2021/05/27 01:49:23;;;;;;;142.55;106.75;;;;;;;;;;5046422;28;20033;-51
2021/05/27 01:51:49;;;;;;;160.93;123.68;;;;;;;;;;5045753;28;20119;-50
2021/05/27 01:54:16;;;;;;;132.40;103.43;;;;;;;;;;5046654;28;20334;-48
2021/05/27 01:56:43;;;;;;;72.50;53.13;;;;;;;;;;5045880;28;20052;-49
2021/05/27 01:59:09;;;;;;;44.38;28.38;;;;;;;;;;5045877;28;20032;-51
2021/05/27 02:01:35;;;;;;;24.40;17.35;;;;;;;;;;5045998;28;20024;-49
2021/05/27 02:04:01;;;;;;;54.63;35.75;;;;;;;;;;5045718;28;20713;-47
2021/05/27 02:06:28;;;;;;;91.18;62.67;;;;;;;;;;5046096;28;20032;-49
2021/05/27 02:09:09;;;;;;;65.90;44.50;;;;;;;;;;5046138;28;20028;-49
2021/05/27 02:11:36;;;;;;;26.77;18.80;;;;;;;;;;5045909;28;20132;-50
2021/05/27 02:14:03;;;;;;;17.52;12.32;;;;;;;;;;5045833;28;20964;-50
2021/05/27 02:16:30;;;;;;;20.05;12.40;;;;;;;;;;5046097;28;20021;-51
2021/05/27 02:18:56;;;;;;;10.25;6.70;;;;;;;;;;5045844;28;20033;-50
2021/05/27 02:21:22;;;;;;;12.52;4.53;;;;;;;;;;5045874;28;20034;-49
2021/05/27 02:23:48;;;;;;;10.25;5.78;;;;;;;;;;5066384;28;20028;-50
2021/05/27 02:26:14;;;;;;;7.82;5.03;;;;;;;;;;5072774;28;20458;-51
2021/05/27 02:28:40;;;;;;;12.65;6.03;;;;;;;;;;5072735;28;20369;-51
2021/05/27 02:31:06;;;;;;;15.82;7.68;;;;;;;;;;5073008;28;20147;-52
2021/05/27 02:33:33;;;;;;;12.95;6.47;;;;;;;;;;5072969;28;20025;-50
2021/05/27 02:35:59;;;;;;;12.80;6.60;;;;;;;;;;5072810;28;20435;-51
2021/05/27 02:38:25;;;;;;;12.15;6.20;;;;;;;;;;5073077;28;20082;-48
2021/05/27 02:40:51;;;;;;;14.27;5.53;;;;;;;;;;5072916;28;20417;-49
2021/05/27 02:43:17;;;;;;;10.30;6.03;;;;;;;;;;5072848;28;20017;-51
2021/05/27 02:45:43;;;;;;;11.88;6.05;;;;;;;;;;5072865;28;20029;-52
2021/05/27 02:48:09;;;;;;;17.23;9.60;;;;;;;;;;5072976;28;20454;-51
2021/05/27 02:50:35;;;;;;;10.98;6.68;;;;;;;;;;5072442;28;20057;-51
2021/05/27 02:53:01;;;;;;;18.75;6.88;;;;;;;;;;5072981;28;20481;-51
2021/05/27 02:55:29;;;;;;;13.05;6.53;;;;;;;;;;5072887;28;20056;-54
2021/05/27 02:57:56;;;;;;;14.45;6.00;;;;;;;;;;5072801;28;20024;-51
2021/05/27 03:00:22;;;;;;;12.55;5.47;;;;;;;;;;5072900;28;20400;-52
2021/05/27 03:02:48;;;;;;;10.80;4.43;;;;;;;;;;5072802;28;20029;-51
2021/05/27 03:05:16;;;;;;;9.55;4.20;;;;;;;;;;5072931;28;20096;-51
2021/05/27 03:07:42;;;;;;;9.98;4.85;;;;;;;;;;5072682;28;20036;-51
2021/05/27 03:10:09;;;;;;;9.88;3.90;;;;;;;;;;5072710;28;20111;-48
2021/05/27 03:12:35;;;;;;;9.15;3.40;;;;;;;;;;5072516;28;20017;-51
2021/05/27 03:15:01;;;;;;;8.95;3.63;;;;;;;;;;5072904;28;20094;-49
2021/05/27 03:17:27;;;;;;;13.25;4.38;;;;;;;;;;5075374;28;20104;-52
2021/05/27 03:19:53;;;;;;;7.28;3.78;;;;;;;;;;5076182;28;20032;-51
2021/05/27 03:22:19;;;;;;;13.85;4.05;;;;;;;;;;5076120;28;20370;-52
2021/05/27 03:24:45;;;;;;;5.65;3.65;;;;;;;;;;5076152;28;20025;-51
2021/05/27 03:27:11;;;;;;;8.30;3.35;;;;;;;;;;5075979;28;20028;-52
2021/05/27 03:29:37;;;;;;;13.45;4.80;;;;;;;;;;5075876;28;20037;-52
2021/05/27 03:32:03;;;;;;;8.95;4.10;;;;;;;;;;5075903;28;20020;-53
2021/05/27 03:34:29;;;;;;;16.27;5.70;;;;;;;;;;5075921;28;20025;-53
2021/05/27 03:36:56;;;;;;;8.73;3.88;;;;;;;;;;5075788;28;20020;-51
2021/05/27 03:39:22;;;;;;;11.57;5.45;;;;;;;;;;5076440;28;20024;-52
2021/05/27 03:41:48;;;;;;;8.27;4.45;;;;;;;;;;5075668;28;20425;-51
2021/05/27 03:44:14;;;;;;;9.07;3.72;;;;;;;;;;5075696;28;20078;-52
2021/05/27 03:46:40;;;;;;;7.68;3.75;;;;;;;;;;5075732;28;20036;-51
2021/05/27 03:49:06;;;;;;;7.45;3.67;;;;;;;;;;5075595;28;20380;-52
2021/05/27 03:51:34;;;;;;;7.60;3.47;;;;;;;;;;5075453;28;20048;-51
2021/05/27 03:54:01;;;;;;;7.80;3.92;;;;;;;;;;5075566;28;20073;-51
2021/05/27 03:56:27;;;;;;;11.82;3.80;;;;;;;;;;5075340;28;20078;-51
2021/05/27 04:01:38;;;;;;;6.22;3.00;;;;;;;;;;5075734;28;20031;-51
2021/05/27 04:09:35;;;;;;;12.82;3.33;;;;;;;;;;5075193;28;20117;-52
2021/05/27 04:15:20;;;;;;;9.38;3.47;;;;;;;;;;5075534;28;20434;-52
2021/05/27 04:17:32;;;;;;;14.98;3.53;;;;;;;;;;5074941;28;20391;-51
2021/05/27 04:19:58;;;;;;;11.25;3.50;;;;;;;;;;5056569;28;20036;-51
2021/05/27 04:22:25;;;;;;;12.00;3.45;;;;;;;;;;5075138;28;20039;-51
2021/05/27 04:24:51;;;;;;;11.23;4.00;;;;;;;;;;5075034;28;20060;-51
2021/05/27 04:27:17;;;;;;;17.02;4.38;;;;;;;;;;5074506;28;20020;-51
2021/05/27 04:29:43;;;;;;;23.65;5.68;;;;;;;;;;5074007;28;20488;-49
2021/05/27 04:32:53;;;;;;;13.27;4.53;;;;;;;;;;5074841;28;20021;-49
2021/05/27 04:34:57;;;;;;;18.05;6.28;;;;;;;;;;5074572;28;20491;-49
2021/05/27 04:37:23;;;;;;;20.95;11.50;;;;;;;;;;5074741;28;20500;-51
2021/05/27 04:39:49;;;;;;;16.25;7.78;;;;;;;;;;5074629;28;20016;-51
2021/05/27 04:42:15;;;;;;;17.90;9.77;;;;;;;;;;5074434;28;20021;-51
2021/05/27 04:44:41;;;;;;;22.98;10.13;;;;;;;;;;5074563;28;20035;-51
2021/05/27 04:47:07;;;;;;;21.25;7.63;;;;;;;;;;5074330;28;20029;-51
2021/05/27 04:49:33;;;;;;;22.52;6.63;;;;;;;;;;5074206;28;20032;-49
2021/05/27 04:52:00;;;;;;;22.38;8.07;;;;;;;;;;5055667;28;20040;-49
2021/05/27 04:54:26;;;;;;;11.43;4.55;;;;;;;;;;5074088;28;20035;-51
2021/05/27 04:56:52;;;;;;;18.42;5.35;;;;;;;;;;5074077;28;20030;-51
2021/05/27 04:59:18;;;;;;;11.00;5.80;;;;;;;;;;5074133;28;20020;-50
2021/05/27 05:01:46;;;;;;;11.30;4.97;;;;;;;;;;5073917;28;20029;-51
2021/05/27 05:04:12;;;;;;;17.73;8.18;;;;;;;;;;5074101;28;20105;-51
2021/05/27 05:06:38;;;;;;;39.17;21.20;;;;;;;;;;5073479;28;20029;-49
2021/05/27 05:09:04;;;;;;;27.52;14.75;;;;;;;;;;5069838;28;20028;-50
2021/05/27 05:11:31;;;;;;;23.10;10.18;;;;;;;;;;5072453;28;20032;-49
2021/05/27 05:13:57;;;;;;;21.10;12.02;;;;;;;;;;5070804;28;20039;-51
2021/05/27 05:16:23;;;;;;;44.55;13.77;;;;;;;;;;5073819;28;20103;-54
2021/05/27 05:18:49;;;;;;;33.30;15.32;;;;;;;;;;5073671;28;20082;-53
2021/05/27 05:21:15;;;;;;;17.52;7.57;;;;;;;;;;5073577;28;20067;-54
2021/05/27 05:23:41;;;;;;;26.20;13.55;;;;;;;;;;5073778;28;20100;-52
2021/05/27 05:26:07;;;;;;;10.02;6.07;;;;;;;;;;5073523;28;20024;-53
2021/05/27 05:28:33;;;;;;;14.00;6.32;;;;;;;;;;5074024;28;20031;-54
2021/05/27 05:30:59;;;;;;;11.80;5.75;;;;;;;;;;5073648;28;20042;-53
2021/05/27 05:33:25;;;;;;;10.00;3.50;;;;;;;;;;5073550;28;20492;-53
2021/05/27 05:35:52;;;;;;;3.72;1.98;;;;;;;;;;5073638;28;20039;-51
2021/05/27 05:38:18;;;;;;;6.95;2.80;;;;;;;;;;5073746;28;20109;-53
2021/05/27 05:40:44;;;;;;;6.65;3.67;;;;;;;;;;5073154;28;20020;-54
2021/05/27 05:43:10;;;;;;;8.35;1.88;;;;;;;;;;5073379;28;20028;-53
2021/05/27 05:45:36;;;;;;;9.95;3.67;;;;;;;;;;5073496;28;20020;-53
2021/05/27 05:48:02;;;;;;;5.25;2.08;;;;;;;;;;5073617;28;20025;-53
2021/05/27 05:53:15;;;;;;;5.45;2.42;;;;;;;;;;5073744;28;20429;-54
2021/05/27 05:55:41;;;;;;;6.90;1.98;;;;;;;;;;5055375;28;20081;-54
2021/05/27 05:58:08;;;;;;;3.85;2.50;;;;;;;;;;5073187;28;20487;-54
2021/05/27 06:00:34;;;;;;;6.72;2.90;;;;;;;;;;5073193;28;20025;-51
2021/05/27 06:03:00;;;;;;;10.52;2.90;;;;;;;;;;5073253;28;20028;-50
2021/05/27 06:05:26;;;;;;;23.08;12.55;;;;;;;;;;5073503;28;20472;-51
2021/05/27 06:07:55;;;;;;;18.67;9.55;;;;;;;;;;5073317;28;20032;-51
2021/05/27 06:10:21;;;;;;;42.13;25.10;;;;;;;;;;5073177;28;20544;-51
2021/05/27 06:12:50;;;;;;;20.08;10.50;;;;;;;;;;5073049;28;20032;-50
2021/05/27 06:15:21;;;;;;;14.00;7.30;;;;;;;;;;5073260;28;20031;-51
2021/05/27 06:17:48;;;;;;;10.38;6.10;;;;;;;;;;5073340;28;20370;-51
2021/05/27 06:20:14;;;;;;;10.00;2.67;;;;;;;;;;5073145;28;20032;-56
2021/05/27 06:22:40;;;;;;;10.30;5.18;;;;;;;;;;5073258;28;20052;-53
2021/05/27 06:25:06;;;;;;;10.85;5.93;;;;;;;;;;5073179;28;20082;-54
2021/05/27 06:27:33;;;;;;;4.07;1.20;;;;;;;;;;5073089;28;20473;-53
2021/05/27 06:29:59;;;;;;;7.40;2.28;;;;;;;;;;5072863;28;20039;-53
2021/05/27 06:32:25;;;;;;;12.13;5.35;;;;;;;;;;5071998;28;20067;-53
2021/05/27 06:34:52;;;;;;;9.57;3.90;;;;;;;;;;5072932;28;20028;-53
2021/05/27 06:37:19;;;;;;;8.05;3.38;;;;;;;;;;5073104;28;20384;-53
2021/05/27 06:39:45;;;;;;;6.60;3.65;;;;;;;;;;5072852;28;20028;-52
2021/05/27 06:42:13;;;;;;;15.55;8.30;;;;;;;;;;5072877;28;20032;-53
2021/05/27 06:44:39;;;;;;;3.78;1.83;;;;;;;;;;5072684;28;20058;-53
2021/05/27 06:47:05;;;;;;;6.13;2.58;;;;;;;;;;5072759;28;20025;-53
2021/05/27 06:49:31;;;;;;;9.68;3.22;;;;;;;;;;5073154;28;20143;-54
2021/05/27 06:51:57;;;;;;;4.68;1.33;;;;;;;;;;5074401;28;20058;-53
2021/05/27 06:54:24;;;;;;;13.20;3.13;;;;;;;;;;5076542;28;20028;-53
2021/05/27 06:56:54;;;;;;;3.92;1.55;;;;;;;;;;5076535;28;20150;-53
2021/05/27 06:59:21;;;;;;;28.45;13.50;;;;;;;;;;5076303;28;20050;-52
2021/05/27 07:01:47;;;;;;;9.10;2.72;;;;;;;;;;5076789;28;20028;-53
2021/05/27 07:04:13;;;;;;;5.35;1.80;;;;;;;;;;5076650;28;20027;-52
2021/05/27 07:06:39;;;;;;;3.38;1.60;;;;;;;;;;5076431;28;20376;-50
2021/05/27 07:09:05;;;;;;;12.25;2.20;;;;;;;;;;5076485;28;20126;-53
2021/05/27 07:11:31;;;;;;;10.48;4.97;;;;;;;;;;5076462;28;20057;-52
2021/05/27 07:13:58;;;;;;;2.95;1.83;;;;;;;;;;5076237;28;20040;-53
2021/05/27 07:16:27;;;;;;;3.33;1.90;;;;;;;;;;5076156;28;20032;-52
2021/05/27 07:18:53;;;;;;;8.52;1.50;;;;;;;;;;5076303;28;20021;-53
2021/05/27 07:21:19;;;;;;;3.40;1.27;;;;;;;;;;5076365;28;20032;-53
2021/05/27 07:23:45;;;;;;;5.63;1.80;;;;;;;;;;5076106;28;20025;-52
2021/05/27 07:26:11;;;;;;;5.07;1.40;;;;;;;;;;5076289;28;20687;-53
2021/05/27 07:28:37;;;;;;;4.75;1.70;;;;;;;;;;5075985;28;20029;-54
2021/05/27 07:31:05;;;;;;;1.25;0.65;;;;;;;;;;5075981;28;20047;-53
2021/05/27 07:33:31;;;;;;;2.08;0.88;;;;;;;;;;5075968;28;20021;-54
2021/05/27 07:35:57;;;;;;;6.35;0.80;;;;;;;;;;5075952;28;20029;-52
2021/05/27 07:38:23;;;;;;;3.10;0.50;;;;;;;;;;5075970;28;20017;-54
2021/05/27 07:40:49;;;;;;;3.22;1.50;;;;;;;;;;5075810;28;20103;-54
2021/05/27 07:43:16;;;;;;;3.78;1.60;;;;;;;;;;5075702;28;20038;-54
2021/05/27 07:45:42;;;;;;;5.97;1.10;;;;;;;;;;5075615;28;20396;-53
2021/05/27 07:48:08;;;;;;;6.15;1.08;;;;;;;;;;5075773;28;20028;-54
2021/05/27 07:50:34;;;;;;;4.70;0.80;;;;;;;;;;5075356;28;20048;-53
2021/05/27 07:53:00;;;;;;;4.03;0.95;;;;;;;;;;5075566;28;20040;-53
2021/05/27 07:55:26;;;;;;;3.97;0.70;;;;;;;;;;5075518;28;20035;-53
2021/05/27 07:57:53;;;;;;;3.70;2.45;;;;;;;;;;5075356;28;20032;-53
2021/05/27 08:00:20;;;;;;;28.42;12.15;;;;;;;;;;5075296;28;20017;-53
2021/05/27 08:02:49;;;;;;;11.73;6.93;;;;;;;;;;5075135;28;20027;-53
2021/05/27 08:05:15;;;;;;;12.00;7.95;;;;;;;;;;5075215;28;20074;-54
2021/05/27 08:07:41;;;;;;;9.23;4.45;;;;;;;;;;5074959;28;20096;-52
2021/05/27 08:10:08;;;;;;;11.68;7.18;;;;;;;;;;5074756;28;20033;-52
2021/05/27 08:12:34;;;;;;;7.45;2.55;;;;;;;;;;5075078;28;20074;-57
2021/05/27 08:15:00;;;;;;;37.13;20.80;;;;;;;;;;5074936;28;20028;-57
2021/05/27 08:17:26;;;;;;;93.25;58.33;;;;;;;;;;5074972;28;20481;-58
2021/05/27 08:19:52;;;;;;;21.67;12.68;;;;;;;;;;5074819;28;20032;-54
2021/05/27 08:22:19;;;;;;;14.20;7.68;;;;;;;;;;5075047;28;20035;-55
2021/05/27 08:24:45;;;;;;;15.32;6.43;;;;;;;;;;5074761;28;20094;-54
2021/05/27 08:27:11;;;;;;;34.40;18.55;;;;;;;;;;5074750;28;20198;-57
2021/05/27 08:29:37;;;;;;;67.50;41.15;;;;;;;;;;5074630;28;20090;-58
2021/05/27 08:32:06;;;;;;;59.33;34.25;;;;;;;;;;5072870;28;20028;-56
2021/05/27 08:34:32;;;;;;;6.85;4.40;;;;;;;;;;5072810;28;20500;-56
2021/05/27 08:36:58;;;;;;;7.30;3.85;;;;;;;;;;5052529;28;20445;-57
2021/05/27 08:39:24;;;;;;;8.82;4.22;;;;;;;;;;5073640;28;20029;-56
2021/05/27 08:41:50;;;;;;;95.25;58.05;;;;;;;;;;5073256;28;20095;-55
2021/05/27 08:44:16;;;;;;;16.20;7.80;;;;;;;;;;5073281;28;20024;-52
2021/05/27 08:46:42;;;;;;;5.40;2.60;;;;;;;;;;5073041;28;20559;-55
2021/05/27 08:49:09;;;;;;;26.73;16.95;;;;;;;;;;5070265;28;20079;-55
2021/05/27 08:51:36;;;;;;;5.90;2.60;;;;;;;;;;5072787;28;20087;-55
2021/05/27 08:54:03;;;;;;;5.75;1.30;;;;;;;;;;5072897;28;20043;-56
2021/05/27 08:56:29;;;;;;;10.00;4.13;;;;;;;;;;5070135;28;20024;-53
2021/05/27 08:58:55;;;;;;;85.63;58.10;;;;;;;;;;5072584;28;20021;-54
2021/05/27 09:01:24;;;;;;;12.93;7.45;;;;;;;;;;5054883;28;20115;-53
2021/05/27 09:03:53;;;;;;;4.75;3.60;;;;;;;;;;5054491;28;20187;-53
2021/05/27 09:06:19;;;;;;;6.22;4.07;;;;;;;;;;5070069;28;20519;-53
2021/05/27 09:08:45;;;;;;;12.27;7.72;;;;;;;;;;5072553;28;20021;-51
2021/05/27 09:11:13;;;;;;;31.52;22.45;;;;;;;;;;5072658;28;20039;-49
2021/05/27 09:13:50;;;;;;;88.05;61.67;;;;;;;;;;5072141;28;20016;-55
2021/05/27 09:16:17;;;;;;;78.38;58.10;;;;;;;;;;5071288;28;20024;-55
2021/05/27 09:18:43;;;;;;;22.77;16.17;;;;;;;;;;5072322;28;20048;-54
2021/05/27 09:21:11;;;;;;;30.15;19.92;;;;;;;;;;5072623;28;20024;-53
2021/05/27 09:23:38;;;;;;;112.68;77.55;;;;;;;;;;5070561;28;20020;-51
2021/05/27 09:26:08;;;;;;;11.98;9.38;;;;;;;;;;5072897;28;20384;-56
2021/05/27 09:28:35;;;;;;;15.93;11.13;;;;;;;;;;5072033;28;20028;-55
2021/05/27 09:31:05;;;;;;;10.45;4.22;;;;;;;;;;5072114;28;20024;-54
2021/05/27 09:33:33;;;;;;;4.67;2.77;;;;;;;;;;5069642;28;20039;-55
2021/05/27 09:36:00;;;;;;;9.48;6.68;;;;;;;;;;5069155;28;20020;-54
2021/05/27 09:38:30;;;;;;;189.55;139.00;;;;;;;;;;5072131;28;20020;-53
2021/05/27 09:40:57;;;;;;;54.80;34.38;;;;;;;;;;5072000;28;20403;-53
2021/05/27 09:43:24;;;;;;;35.80;15.85;;;;;;;;;;5072312;28;20017;-56
2021/05/27 09:46:01;;;;;;;24.80;12.77;;;;;;;;;;5071911;28;20040;-60
2021/05/27 09:48:27;;;;;;;24.02;12.88;;;;;;;;;;5070514;28;20055;-58
2021/05/27 09:50:59;;;;;;;19.60;13.27;;;;;;;;;;5071828;28;20090;-56
2021/05/27 09:53:26;;;;;;;5.38;3.42;;;;;;;;;;5071557;28;20032;-57
2021/05/27 09:55:53;;;;;;;110.38;75.35;;;;;;;;;;5071847;28;20145;-57
2021/05/27 09:58:20;;;;;;;12.68;9.18;;;;;;;;;;5071586;28;20089;-57
2021/05/27 10:00:47;;;;;;;6.55;4.53;;;;;;;;;;5053835;28;20380;-55
2021/05/27 10:03:26;;;;;;;11.32;6.15;;;;;;;;;;5070560;28;20562;-54
2021/05/27 10:05:52;;;;;;;4.93;3.17;;;;;;;;;;5070079;28;20121;-54
2021/05/27 10:08:20;;;;;;;6.05;2.00;;;;;;;;;;5072090;28;20098;-52
2021/05/27 10:10:47;;;;;;;17.48;9.75;;;;;;;;;;5069519;28;20036;-54
2021/05/27 10:13:14;;;;;;;7.35;2.45;;;;;;;;;;5061529;28;20060;-54
2021/05/27 10:15:44;;;;;;;6.72;2.50;;;;;;;;;;5072105;28;20032;-54
2021/05/27 10:18:15;;;;;;;55.72;35.72;;;;;;;;;;5072679;28;20028;-55
2021/05/27 10:20:41;;;;;;;25.50;16.65;;;;;;;;;;5072922;28;20025;-50
2021/05/27 10:23:07;;;;;;;7.45;2.38;;;;;;;;;;5072388;28;20031;-58
2021/05/27 10:25:34;;;;;;;14.00;8.77;;;;;;;;;;5074086;28;20488;-57
2021/05/27 10:28:03;;;;;;;50.83;34.58;;;;;;;;;;5076912;28;20028;-58
2021/05/27 10:30:30;;;;;;;29.08;17.10;;;;;;;;;;5076861;28;20029;-57
2021/05/27 10:32:59;;;;;;;26.08;13.52;;;;;;;;;;5076888;28;20028;-57
2021/05/27 10:35:44;;;;;;;12.10;6.38;;;;;;;;;;5076857;28;20040;-52
2021/05/27 10:38:10;;;;;;;14.20;5.57;;;;;;;;;;5076867;28;20024;-57
2021/05/27 10:40:37;;;;;;;23.67;12.98;;;;;;;;;;5076863;28;20028;-51
2021/05/27 10:43:10;;;;;;;18.13;9.50;;;;;;;;;;5076682;28;20024;-51
2021/05/27 10:45:56;;;;;;;5.90;1.90;;;;;;;;;;5076935;28;20060;-48
2021/05/27 10:48:24;;;;;;;9.93;4.35;;;;;;;;;;5076436;28;20028;-49
2021/05/27 10:53:38;;;;;;;108.60;79.45;;;;;;;;;;5076514;28;20025;-57
2021/05/27 10:56:08;;;;;;;26.15;16.58;;;;;;;;;;5076734;28;20070;-51
2021/05/27 10:58:49;;;;;;;5.22;3.85;;;;;;;;;;5076445;28;20028;-48
2021/05/27 11:01:19;;;;;;;20.10;11.30;;;;;;;;;;5076721;28;20024;-51
2021/05/27 11:03:49;;;;;;;9.30;6.15;;;;;;;;;;5076560;28;20029;-53
2021/05/27 11:06:21;;;;;;;28.20;12.77;;;;;;;;;;5076427;28;20024;-49
2021/05/27 11:08:48;;;;;;;13.02;5.20;;;;;;;;;;5076283;28;20025;-50
2021/05/27 11:11:32;;;;;;;31.63;11.45;;;;;;;;;;5058022;28;20044;-58
2021/05/27 11:14:17;;;;;;;34.58;13.73;;;;;;;;;;5076328;28;20031;-52
2021/05/27 11:17:12;;;;;;;5.70;2.47;;;;;;;;;;5076326;28;20058;-49
2021/05/27 11:22:29;;;;;;;5.80;1.70;;;;;;;;;;5076177;28;20032;-50
2021/05/27 11:25:10;;;;;;;37.17;12.65;;;;;;;;;;5076251;28;20107;-48
2021/05/27 11:27:49;;;;;;;10.20;4.03;;;;;;;;;;5076209;28;20029;-48
2021/05/27 11:30:16;;;;;;;26.23;9.95;;;;;;;;;;5076155;28;20527;-48
2021/05/27 11:32:46;;;;;;;14.40;3.38;;;;;;;;;;5076196;28;20039;-47
2021/05/27 11:35:13;;;;;;;7.57;2.25;;;;;;;;;;5076334;28;20060;-60
2021/05/27 11:37:40;;;;;;;4.65;2.13;;;;;;;;;;5076156;28;20028;-60
2021/05/27 11:40:11;;;;;;;13.82;4.35;;;;;;;;;;5076625;28;20052;-61
2021/05/27 11:42:39;;;;;;;6.97;1.63;;;;;;;;;;5076696;28;20526;-62
2021/05/27 11:45:07;;;;;;;6.55;1.65;;;;;;;;;;5075833;28;20044;-62
2021/05/27 11:47:33;;;;;;;9.10;4.00;;;;;;;;;;5075913;28;20107;-61
2021/05/27 11:50:11;;;;;;;4.70;2.85;;;;;;;;;;5057503;28;20447;-61
2021/05/27 11:52:37;;;;;;;13.88;3.60;;;;;;;;;;5075481;28;20044;-62
2021/05/27 11:55:04;;;;;;;11.23;2.47;;;;;;;;;;5075739;28;20380;-61
2021/05/27 11:57:49;;;;;;;4.93;1.92;;;;;;;;;;5075701;28;20074;-62
2021/05/27 12:00:19;;;;;;;5.32;1.23;;;;;;;;;;5075390;28;20025;-58
2021/05/27 12:02:45;;;;;;;8.63;4.50;;;;;;;;;;5075697;28;20024;-48
2021/05/27 12:05:37;;;;;;;7.82;2.33;;;;;;;;;;5075478;28;20249;-48
2021/05/27 12:08:12;;;;;;;4.30;1.42;;;;;;;;;;5071960;28;20044;-48
2021/05/27 12:10:45;;;;;;;9.85;2.80;;;;;;;;;;5057337;28;20388;-48
2021/05/27 12:13:19;;;;;;;5.95;1.60;;;;;;;;;;5074750;28;20385;-52
2021/05/27 12:15:45;;;;;;;9.60;2.15;;;;;;;;;;5075322;28;20031;-47
2021/05/27 12:18:15;;;;;;;3.72;1.98;;;;;;;;;;5075199;28;20152;-59
2021/05/27 12:20:42;;;;;;;4.30;1.67;;;;;;;;;;5075031;28;20064;-47
2021/05/27 12:23:08;;;;;;;5.93;1.05;;;;;;;;;;5075070;28;20152;-53
2021/05/27 12:25:38;;;;;;;10.70;2.72;;;;;;;;;;5075139;28;20051;-50
2021/05/27 12:28:07;;;;;;;7.03;2.17;;;;;;;;;;5074983;28;20361;-50
2021/05/27 12:30:35;;;;;;;13.57;1.90;;;;;;;;;;5074730;28;20284;-49
2021/05/27 12:33:01;;;;;;;4.45;1.05;;;;;;;;;;5074933;28;20020;-49
2021/05/27 12:35:29;;;;;;;7.22;1.65;;;;;;;;;;5074740;28;20110;-58
2021/05/27 12:37:58;;;;;;;12.68;2.00;;;;;;;;;;5074846;28;20024;-54
2021/05/27 12:40:29;;;;;;;6.78;1.20;;;;;;;;;;5074642;28;20028;-52
2021/05/27 12:43:00;;;;;;;1.45;0.80;;;;;;;;;;5074713;28;20032;-51
2021/05/27 12:45:26;;;;;;;4.57;1.20;;;;;;;;;;5074446;28;20034;-48
2021/05/27 12:48:04;;;;;;;2.05;0.80;;;;;;;;;;5074364;28;20756;-50
2021/05/27 12:50:32;;;;;;;2.63;1.10;;;;;;;;;;5073373;28;20044;-57
2021/05/27 12:52:59;;;;;;;6.28;2.17;;;;;;;;;;5074268;28;20112;-59
2021/05/27 12:55:29;;;;;;;6.53;1.25;;;;;;;;;;5074351;28;20032;-55
2021/05/27 12:57:56;;;;;;;2.58;1.20;;;;;;;;;;5074359;28;20092;-51
2021/05/27 13:00:23;;;;;;;6.43;1.00;;;;;;;;;;5074418;28;20035;-56
2021/05/27 13:03:01;;;;;;;3.35;1.30;;;;;;;;;;5074431;28;20461;-49
2021/05/27 13:05:27;;;;;;;3.53;1.17;;;;;;;;;;5074144;28;20032;-61
2021/05/27 13:07:54;;;;;;;3.28;0.90;;;;;;;;;;5074059;28;20090;-53
2021/05/27 13:10:31;;;;;;;2.28;0.90;;;;;;;;;;5074207;28;20039;-50
2021/05/27 13:12:57;;;;;;;4.88;0.70;;;;;;;;;;5074173;28;20048;-49
2021/05/27 13:15:23;;;;;;;4.43;1.13;;;;;;;;;;5073790;28;20024;-48
2021/05/27 13:18:25;;;;;;;2.60;1.00;;;;;;;;;;5074029;28;20408;-48
2021/05/27 13:20:57;;;;;;;2.95;0.80;;;;;;;;;;4976124;28;20486;-50
2021/05/27 13:23:24;;;;;;;3.60;0.93;;;;;;;;;;4992675;28;20049;-50
2021/05/27 13:25:50;;;;;;;0.85;0.80;;;;;;;;;;4992446;28;20542;-46
2021/05/27 13:28:23;;;;;;;5.82;1.20;;;;;;;;;;4992451;28;20074;-48
2021/05/27 13:30:50;;;;;;;4.13;1.10;;;;;;;;;;4992132;28;20042;-50
2021/05/27 13:33:22;;;;;;;1.52;0.98;;;;;;;;;;4992285;28;20061;-60
2021/05/27 13:35:54;;;;;;;2.55;1.08;;;;;;;;;;4992592;28;20046;-48
2021/05/27 13:38:21;;;;;;;11.85;1.40;;;;;;;;;;4975652;28;20065;-48
2021/05/27 13:40:47;;;;;;;13.00;1.70;;;;;;;;;;4992151;28;20023;-48
2021/05/27 13:43:18;;;;;;;4.30;1.88;;;;;;;;;;4992423;28;20438;-51
2021/05/27 13:45:44;;;;;;;6.43;1.35;;;;;;;;;;4992297;28;20029;-56
2021/05/27 13:48:11;;;;;;;6.60;2.10;;;;;;;;;;4992062;28;20510;-53
2021/05/27 13:50:38;;;;;;;4.80;1.30;;;;;;;;;;4991673;28;20435;-51
2021/05/27 13:53:06;;;;;;;5.18;1.23;;;;;;;;;;4991990;28;20035;-48
2021/05/27 13:55:33;;;;;;;7.47;2.78;;;;;;;;;;5040042;28;20037;-48
2021/05/27 13:58:02;;;;;;;11.13;1.27;;;;;;;;;;5053505;28;20535;-52
2021/05/27 14:00:29;;;;;;;4.72;1.05;;;;;;;;;;5053175;28;20025;-48
2021/05/27 14:02:55;;;;;;;4.18;1.40;;;;;;;;;;5053243;28;20060;-51
2021/05/27 14:05:21;;;;;;;6.00;1.05;;;;;;;;;;5053230;28;20025;-50
2021/05/27 14:07:54;;;;;;;3.25;0.90;;;;;;;;;;5053075;28;20017;-61
2021/05/27 14:10:20;;;;;;;9.25;1.70;;;;;;;;;;5053242;28;20090;-59
2021/05/27 14:12:49;;;;;;;1.95;1.27;;;;;;;;;;5053258;28;20094;-62
2021/05/27 14:15:18;;;;;;;2.30;1.15;;;;;;;;;;5053107;28;20025;-49
2021/05/27 14:17:44;;;;;;;2.75;1.17;;;;;;;;;;5053293;28;20021;-56
2021/05/27 14:20:10;;;;;;;5.72;1.10;;;;;;;;;;5051822;28;20481;-52
2021/05/27 14:22:36;;;;;;;9.25;1.42;;;;;;;;;;5052990;28;20056;-48
2021/05/27 14:25:03;;;;;;;5.22;1.20;;;;;;;;;;5053403;28;20098;-48
2021/05/27 14:27:29;;;;;;;2.25;1.00;;;;;;;;;;5053194;28;20029;-49
2021/05/27 14:29:56;;;;;;;2.25;0.95;;;;;;;;;;5052848;28;20033;-49
2021/05/27 14:32:22;;;;;;;4.22;1.13;;;;;;;;;;5053076;28;20021;-47
2021/05/27 14:34:48;;;;;;;11.52;1.40;;;;;;;;;;5052933;28;20507;-48
2021/05/27 14:37:14;;;;;;;4.88;1.27;;;;;;;;;;5052824;28;20025;-56
2021/05/27 14:39:41;;;;;;;18.02;2.05;;;;;;;;;;5052286;28;20025;-49
2021/05/27 14:42:08;;;;;;;7.30;1.30;;;;;;;;;;5050358;28;20432;-51
2021/05/27 14:44:34;;;;;;;9.52;1.63;;;;;;;;;;5050763;28;20036;-53
2021/05/27 14:47:00;;;;;;;22.45;8.18;;;;;;;;;;5051562;28;20067;-57
2021/05/27 14:49:26;;;;;;;9.82;4.57;;;;;;;;;;5051212;28;20492;-47
2021/05/27 14:51:53;;;;;;;16.92;5.57;;;;;;;;;;5060349;28;20052;-47
2021/05/27 14:54:19;;;;;;;21.73;14.50;;;;;;;;;;5061013;28;20036;-50
2021/05/27 14:56:45;;;;;;;21.42;14.57;;;;;;;;;;5064693;28;20028;-58